Time;durP1;ratioP1;P1;durP2;ratioP2;P2;SDS_P1;SDS_P2;PMS_P1;PMS_P2;Temp;Humidity;BMP_temperature;BMP_pressure;BME280_temperature;BME280_humidity;BME280_pressure;Samples;Min_cycle;Max_cycle;Signal;HPM_P1;HPM_P2
2021/08/12 00:00:06;;;;;;;4.90;4.50;;;26.30;52.90;;;;;;5109919;27;20473;-83
2021/08/12 00:02:34;;;;;;;5.00;4.50;;;26.30;53.00;;;;;;5109616;28;20501;-83
2021/08/12 00:05:03;;;;;;;5.50;5.03;;;26.30;52.90;;;;;;5109018;28;20475;-83
2021/08/12 00:07:31;;;;;;;4.57;4.23;;;26.30;53.00;;;;;;5108533;28;20495;-81
2021/08/12 00:10:00;;;;;;;5.17;4.77;;;26.30;53.00;;;;;;5108498;28;20430;-84
2021/08/12 00:12:27;;;;;;;5.70;5.03;;;26.30;53.00;;;;;;5109079;28;20415;-83
2021/08/12 00:14:56;;;;;;;4.73;4.43;;;26.20;53.10;;;;;;5108273;28;20456;-83
2021/08/12 00:17:25;;;;;;;4.80;4.30;;;26.20;52.90;;;;;;5108486;28;20522;-83
2021/08/12 00:19:53;;;;;;;5.10;4.57;;;26.20;53.10;;;;;;5108352;28;20497;-82
2021/08/12 00:22:20;;;;;;;5.37;4.70;;;26.20;53.10;;;;;;5110453;28;20442;-84
2021/08/12 00:24:48;;;;;;;5.47;4.80;;;26.20;53.10;;;;;;5117103;28;20513;-82
2021/08/12 00:27:16;;;;;;;4.77;4.27;;;26.20;53.10;;;;;;5107046;28;20506;-83
2021/08/12 00:29:44;;;;;;;4.53;4.23;;;26.20;53.10;;;;;;5106962;28;20470;-83
2021/08/12 00:32:12;;;;;;;5.53;4.30;;;26.20;53.20;;;;;;5105431;28;20493;-81
2021/08/12 00:34:41;;;;;;;4.53;4.23;;;26.20;53.20;;;;;;5105043;28;20505;-83
2021/08/12 00:37:09;;;;;;;4.43;4.03;;;26.10;53.10;;;;;;5105110;28;20499;-80
2021/08/12 00:39:37;;;;;;;4.80;4.40;;;26.10;53.20;;;;;;5104894;28;20468;-83
2021/08/12 00:42:05;;;;;;;4.70;4.30;;;26.00;53.20;;;;;;5105190;28;20500;-82
2021/08/12 00:44:33;;;;;;;4.43;4.07;;;26.00;53.40;;;;;;5104968;28;21004;-83
2021/08/12 00:47:01;;;;;;;5.03;4.67;;;26.00;53.40;;;;;;5104627;28;20434;-82
2021/08/12 00:49:29;;;;;;;5.03;4.63;;;25.90;53.30;;;;;;5104045;28;20462;-83
2021/08/12 00:51:58;;;;;;;5.30;4.90;;;26.00;53.50;;;;;;5105751;28;20482;-83
2021/08/12 00:54:26;;;;;;;4.90;4.50;;;25.90;53.30;;;;;;5105779;28;20513;-84
2021/08/12 00:56:53;;;;;;;5.07;4.57;;;25.90;53.50;;;;;;5105257;28;20505;-83
2021/08/12 00:59:21;;;;;;;4.77;4.37;;;25.90;53.50;;;;;;5105870;28;20844;-82
2021/08/12 01:01:49;;;;;;;4.30;4.00;;;25.90;53.70;;;;;;5105445;28;20497;-83
2021/08/12 01:04:17;;;;;;;4.90;4.50;;;25.80;53.60;;;;;;5108991;28;20701;-83
2021/08/12 01:06:48;;;;;;;4.33;4.00;;;25.80;53.70;;;;;;5109321;28;20481;-83
2021/08/12 01:09:22;;;;;;;4.40;4.10;;;25.80;53.80;;;;;;5108928;28;20476;-84
2021/08/12 01:11:51;;;;;;;4.33;4.03;;;25.70;53.70;;;;;;5109035;28;20406;-82
2021/08/12 01:14:23;;;;;;;5.60;4.70;;;25.70;53.80;;;;;;5109299;28;20436;-83
2021/08/12 01:16:54;;;;;;;4.63;4.23;;;25.70;53.80;;;;;;5109403;28;20418;-83
2021/08/12 01:19:41;;;;;;;4.30;4.00;;;25.70;53.90;;;;;;5108039;28;20756;-82
2021/08/12 01:22:09;;;;;;;5.30;4.80;;;25.70;53.80;;;;;;5107760;28;20505;-82
2021/08/12 01:24:39;;;;;;;5.40;4.50;;;25.60;53.90;;;;;;5107718;28;20527;-81
2021/08/12 01:27:07;;;;;;;4.73;4.43;;;25.60;54.10;;;;;;5107775;28;20439;-84
2021/08/12 01:29:42;;;;;;;5.10;4.60;;;25.60;53.90;;;;;;5108531;28;20507;-82
2021/08/12 01:32:11;;;;;;;5.27;4.77;;;25.60;54.10;;;;;;5109557;28;20448;-82
2021/08/12 01:34:53;;;;;;;4.97;4.57;;;25.50;53.90;;;;;;5109399;28;20478;-83
2021/08/12 01:37:21;;;;;;;5.20;4.67;;;25.60;54.10;;;;;;5108680;28;20458;-82
2021/08/12 01:39:49;;;;;;;4.73;4.43;;;25.50;54.00;;;;;;5108555;28;20522;-83
2021/08/12 01:42:17;;;;;;;5.13;4.70;;;25.50;54.10;;;;;;5109320;28;20442;-83
2021/08/12 01:44:45;;;;;;;4.57;4.23;;;25.40;54.00;;;;;;5112990;28;20527;-82
2021/08/12 01:47:12;;;;;;;5.40;4.90;;;25.50;54.20;;;;;;5108418;28;20495;-81
2021/08/12 01:49:41;;;;;;;4.60;4.30;;;25.40;54.20;;;;;;5108390;28;20477;-83
2021/08/12 01:52:10;;;;;;;6.40;4.77;;;25.40;54.10;;;;;;5108583;28;20440;-83
2021/08/12 01:54:38;;;;;;;4.63;4.33;;;25.40;54.00;;;;;;5108024;28;20479;-83
2021/08/12 01:57:06;;;;;;;4.43;4.13;;;25.50;54.30;;;;;;5106928;28;20407;-83
2021/08/12 01:59:34;;;;;;;5.07;4.57;;;25.40;54.20;;;;;;5107520;28;20510;-83
2021/08/12 02:02:01;;;;;;;4.83;4.43;;;25.40;54.20;;;;;;5107843;28;20483;-83
2021/08/12 02:04:30;;;;;;;4.90;4.50;;;25.40;54.00;;;;;;5090443;28;20452;-83
2021/08/12 02:06:57;;;;;;;4.83;4.40;;;25.40;54.10;;;;;;5106884;28;20406;-81
2021/08/12 02:09:26;;;;;;;4.50;4.20;;;25.40;54.20;;;;;;5107494;28;20543;-82
2021/08/12 02:11:54;;;;;;;5.10;4.70;;;25.40;54.10;;;;;;5107486;28;20432;-82
2021/08/12 02:14:22;;;;;;;4.40;4.20;;;25.40;54.20;;;;;;5107958;28;20444;-83
2021/08/12 02:16:50;;;;;;;4.70;4.40;;;25.30;54.20;;;;;;5108047;28;20436;-82
2021/08/12 02:19:18;;;;;;;4.50;4.20;;;25.30;54.20;;;;;;5108426;28;20495;-81
2021/08/12 02:21:47;;;;;;;4.97;4.57;;;25.30;54.30;;;;;;5108091;28;20442;-82
2021/08/12 02:24:17;;;;;;;4.87;4.57;;;25.30;54.20;;;;;;5107874;28;20495;-82
2021/08/12 02:26:49;;;;;;;5.80;5.30;;;25.20;54.10;;;;;;5107942;28;20509;-81
2021/08/12 02:29:17;;;;;;;6.00;4.60;;;25.20;54.30;;;;;;5107401;28;20478;-82
2021/08/12 02:31:46;;;;;;;5.53;5.03;;;25.20;54.40;;;;;;5106723;28;20539;-81
2021/08/12 02:34:14;;;;;;;4.37;4.07;;;25.20;54.40;;;;;;5106700;28;20444;-81
2021/08/12 02:36:42;;;;;;;5.03;4.50;;;25.20;54.40;;;;;;5107221;28;20464;-82
2021/08/12 02:39:10;;;;;;;5.40;4.90;;;25.20;54.40;;;;;;5108375;28;20459;-83
2021/08/12 02:41:37;;;;;;;4.23;3.93;;;25.20;54.30;;;;;;5108721;28;20460;-79
2021/08/12 02:44:07;;;;;;;4.67;4.27;;;25.20;54.30;;;;;;5109489;28;20442;-79
2021/08/12 02:46:34;;;;;;;5.33;4.93;;;25.20;54.40;;;;;;5108062;28;20924;-79
2021/08/12 02:49:02;;;;;;;5.33;4.83;;;25.10;54.40;;;;;;5106854;28;20474;-80
2021/08/12 02:51:31;;;;;;;5.23;4.83;;;25.10;54.40;;;;;;5107482;28;20410;-80
2021/08/12 02:54:00;;;;;;;4.60;4.20;;;25.10;54.50;;;;;;5085352;28;20499;-81
2021/08/12 02:56:27;;;;;;;4.60;4.30;;;25.10;54.50;;;;;;5086845;28;20524;-80
2021/08/12 02:58:55;;;;;;;4.70;4.43;;;25.10;54.50;;;;;;5085779;28;20439;-78
2021/08/12 03:01:26;;;;;;;4.40;4.10;;;25.10;54.60;;;;;;5085647;28;20447;-79
2021/08/12 03:03:56;;;;;;;4.63;4.30;;;25.10;54.40;;;;;;5085568;28;20411;-79
2021/08/12 03:06:24;;;;;;;4.70;4.33;;;25.00;54.40;;;;;;5085882;28;20652;-79
2021/08/12 03:08:52;;;;;;;4.90;4.50;;;25.00;54.50;;;;;;5084343;28;20483;-79
2021/08/12 03:11:20;;;;;;;5.00;4.60;;;25.00;54.50;;;;;;5083511;28;20495;-79
2021/08/12 03:13:49;;;;;;;4.50;4.20;;;25.00;54.50;;;;;;5082927;28;20407;-80
2021/08/12 03:16:17;;;;;;;5.13;4.73;;;25.00;54.50;;;;;;5083057;28;20482;-80
2021/08/12 03:18:46;;;;;;;4.23;3.93;;;25.00;54.50;;;;;;5082729;28;20487;-80
2021/08/12 03:21:15;;;;;;;6.30;4.43;;;24.90;54.40;;;;;;5082300;28;20471;-80
2021/08/12 03:23:43;;;;;;;4.90;4.53;;;24.90;54.60;;;;;;5082728;28;20469;-80
2021/08/12 03:26:11;;;;;;;4.53;4.23;;;24.80;54.70;;;;;;5081598;28;20438;-80
2021/08/12 03:28:39;;;;;;;8.33;4.37;;;24.90;54.70;;;;;;5082323;28;20472;-80
2021/08/12 03:31:07;;;;;;;5.10;4.70;;;24.90;54.80;;;;;;5082003;28;20439;-80
2021/08/12 03:33:35;;;;;;;4.80;4.40;;;24.80;54.70;;;;;;5082222;28;20640;-80
2021/08/12 03:36:04;;;;;;;4.20;3.90;;;24.80;54.80;;;;;;5082201;28;20529;-81
2021/08/12 03:38:34;;;;;;;4.63;4.23;;;24.80;54.70;;;;;;5083761;28;20506;-79
2021/08/12 03:41:02;;;;;;;5.40;4.90;;;24.80;54.60;;;;;;5103954;28;20437;-80
2021/08/12 03:43:30;;;;;;;4.33;4.03;;;24.80;54.60;;;;;;5068892;28;20441;-80
2021/08/12 03:45:57;;;;;;;5.17;4.77;;;24.80;54.60;;;;;;5067132;28;20434;-82
2021/08/12 03:48:25;;;;;;;4.73;4.33;;;24.80;54.70;;;;;;5066273;28;20502;-81
2021/08/12 03:50:53;;;;;;;5.03;4.63;;;24.70;54.60;;;;;;5066301;28;20430;-82
2021/08/12 03:53:23;;;;;;;4.70;4.30;;;24.70;54.80;;;;;;5066707;28;20485;-82
2021/08/12 03:55:55;;;;;;;4.53;4.23;;;24.80;54.80;;;;;;5066582;28;20437;-82
2021/08/12 03:58:23;;;;;;;4.67;4.30;;;24.70;54.80;;;;;;5073021;28;20496;-81
2021/08/12 04:00:52;;;;;;;5.00;4.70;;;24.70;54.80;;;;;;5070437;28;20483;-83
2021/08/12 04:03:20;;;;;;;5.10;4.60;;;24.70;54.70;;;;;;5082873;28;20433;-83
2021/08/12 04:05:48;;;;;;;5.10;4.70;;;24.60;54.70;;;;;;5092398;28;20470;-81
2021/08/12 04:08:16;;;;;;;3.87;3.67;;;24.70;55.00;;;;;;5103851;28;20430;-82
2021/08/12 04:10:45;;;;;;;5.30;4.90;;;24.70;54.80;;;;;;5105395;28;20535;-82
2021/08/12 04:13:13;;;;;;;4.80;4.40;;;24.70;54.90;;;;;;5106390;28;20423;-81
2021/08/12 04:15:41;;;;;;;4.90;4.50;;;24.60;54.90;;;;;;5105407;28;20523;-83
2021/08/12 04:18:09;;;;;;;4.80;4.40;;;24.60;54.90;;;;;;5106054;28;20460;-82
2021/08/12 04:20:37;;;;;;;4.50;4.20;;;24.60;54.80;;;;;;5105664;28;20432;-82
2021/08/12 04:23:05;;;;;;;5.13;4.73;;;24.60;54.80;;;;;;5105578;28;20403;-82
2021/08/12 04:25:33;;;;;;;5.13;4.63;;;24.60;54.90;;;;;;5095092;28;20445;-80
2021/08/12 04:28:03;;;;;;;5.17;4.73;;;24.60;54.90;;;;;;5064689;28;20426;-81
2021/08/12 04:30:31;;;;;;;5.27;4.30;;;24.60;54.90;;;;;;5064501;28;20465;-80
2021/08/12 04:32:59;;;;;;;5.00;4.60;;;24.60;54.90;;;;;;5063192;28;20492;-80
2021/08/12 04:35:27;;;;;;;4.93;4.53;;;24.60;54.80;;;;;;5062957;28;20462;-80
2021/08/12 04:37:55;;;;;;;4.63;4.27;;;24.60;54.90;;;;;;5063479;28;20499;-80
2021/08/12 04:40:23;;;;;;;4.13;3.83;;;24.60;54.90;;;;;;5066018;28;20408;-80
2021/08/12 04:42:52;;;;;;;5.00;4.60;;;24.60;54.90;;;;;;5066336;28;20448;-80
2021/08/12 04:45:22;;;;;;;4.60;4.20;;;24.60;55.00;;;;;;5066721;28;20800;-80
2021/08/12 04:47:51;;;;;;;4.73;4.43;;;24.60;54.90;;;;;;5080746;28;20515;-80
2021/08/12 04:50:18;;;;;;;4.73;4.37;;;24.60;54.80;;;;;;5086760;28;20556;-80
2021/08/12 04:52:46;;;;;;;4.70;4.40;;;24.60;54.80;;;;;;5088343;28;20438;-80
2021/08/12 04:55:15;;;;;;;5.00;4.60;;;24.60;54.80;;;;;;5086441;28;20489;-80
2021/08/12 04:57:43;;;;;;;4.33;4.13;;;24.70;54.80;;;;;;5086273;28;20479;-80
2021/08/12 05:00:11;;;;;;;4.83;4.47;;;24.60;54.80;;;;;;5086664;28;20464;-80
2021/08/12 05:02:41;;;;;;;5.20;4.80;;;24.60;54.80;;;;;;5086706;28;20481;-80
2021/08/12 05:05:10;;;;;;;5.23;4.77;;;24.60;54.80;;;;;;5082654;28;20416;-80
2021/08/12 05:07:38;;;;;;;4.57;4.27;;;24.60;55.00;;;;;;5087682;28;20483;-81
2021/08/12 05:10:06;;;;;;;5.10;4.70;;;24.70;54.80;;;;;;5089126;28;20479;-81
2021/08/12 05:12:34;;;;;;;4.60;4.30;;;24.60;54.70;;;;;;5089373;28;20519;-82
2021/08/12 05:15:02;;;;;;;5.00;4.60;;;24.70;54.70;;;;;;5089010;28;20486;-82
2021/08/12 05:17:30;;;;;;;5.33;4.90;;;24.70;54.70;;;;;;5086438;28;20411;-82
2021/08/12 05:19:59;;;;;;;4.50;4.20;;;24.70;54.60;;;;;;5089398;28;20938;-81
2021/08/12 05:22:27;;;;;;;4.43;4.13;;;24.80;54.60;;;;;;5088842;28;20436;-83
2021/08/12 05:24:55;;;;;;;5.53;5.00;;;24.80;54.60;;;;;;5087547;28;20429;-81
2021/08/12 05:27:23;;;;;;;5.43;4.93;;;24.80;54.50;;;;;;5089725;28;20439;-81
2021/08/12 05:29:51;;;;;;;5.70;5.23;;;24.80;54.50;;;;;;5088615;28;20473;-82
2021/08/12 05:32:18;;;;;;;5.20;4.80;;;24.80;54.40;;;;;;5088832;28;20481;-81
2021/08/12 05:34:46;;;;;;;5.33;4.93;;;24.80;54.30;;;;;;5088683;28;20432;-82
2021/08/12 05:37:15;;;;;;;5.40;5.00;;;24.80;54.30;;;;;;5089155;28;20556;-81
2021/08/12 05:39:43;;;;;;;5.57;5.10;;;24.80;54.20;;;;;;5088593;28;20475;-82
2021/08/12 05:42:11;;;;;;;6.03;5.30;;;24.90;54.30;;;;;;5087597;28;20483;-81
2021/08/12 05:44:39;;;;;;;5.73;5.23;;;24.90;54.20;;;;;;5087512;28;20488;-82
2021/08/12 05:47:07;;;;;;;5.60;5.10;;;25.00;54.10;;;;;;5082821;28;20485;-82
2021/08/12 05:49:35;;;;;;;5.70;5.20;;;25.00;54.10;;;;;;5065518;28;20446;-81
2021/08/12 05:52:03;;;;;;;5.40;5.00;;;25.00;54.00;;;;;;5066488;28;20548;-81
2021/08/12 05:54:32;;;;;;;8.33;5.27;;;25.00;54.00;;;;;;5067943;28;20483;-82
2021/08/12 05:57:00;;;;;;;5.63;5.13;;;25.00;53.90;;;;;;5069088;28;20443;-81
2021/08/12 05:59:28;;;;;;;5.33;4.93;;;25.00;53.80;;;;;;5068978;28;20549;-82
2021/08/12 06:01:56;;;;;;;6.00;5.43;;;25.10;53.90;;;;;;5069021;28;20439;-82
2021/08/12 06:04:24;;;;;;;5.47;4.97;;;25.10;53.90;;;;;;5083326;28;20412;-82
2021/08/12 06:06:51;;;;;;;5.93;5.43;;;25.10;53.80;;;;;;5080385;28;20571;-82
2021/08/12 06:09:19;;;;;;;6.23;5.63;;;25.10;53.80;;;;;;5083155;28;20435;-82
2021/08/12 06:11:49;;;;;;;5.47;5.07;;;25.10;53.70;;;;;;5079278;28;20447;-81
2021/08/12 06:14:17;;;;;;;5.53;5.13;;;25.10;53.60;;;;;;5087416;28;20498;-83
2021/08/12 06:16:45;;;;;;;5.40;4.90;;;25.20;53.50;;;;;;5087681;28;20443;-82
2021/08/12 06:19:12;;;;;;;5.63;5.17;;;25.20;53.60;;;;;;5087403;28;20502;-81
2021/08/12 06:21:40;;;;;;;5.77;5.27;;;25.20;53.50;;;;;;5087617;28;20480;-81
2021/08/12 06:24:13;;;;;;;5.93;5.43;;;25.30;53.60;;;;;;5087631;28;20464;-82
2021/08/12 06:26:43;;;;;;;5.40;5.00;;;25.30;53.40;;;;;;5088006;28;20445;-81
2021/08/12 06:29:12;;;;;;;5.27;4.87;;;25.40;53.40;;;;;;5087706;28;20488;-82
2021/08/12 06:31:40;;;;;;;5.20;4.80;;;25.40;53.30;;;;;;5088137;28;20545;-82
2021/08/12 06:34:08;;;;;;;5.47;4.97;;;25.50;53.20;;;;;;5088018;28;20457;-82
2021/08/12 06:36:36;;;;;;;5.53;5.10;;;25.60;52.90;;;;;;5087928;28;20461;-82
2021/08/12 06:39:04;;;;;;;5.77;5.27;;;25.60;52.70;;;;;;5086752;28;20469;-80
2021/08/12 06:41:32;;;;;;;5.17;4.77;;;25.70;52.80;;;;;;5087771;28;20906;-80
2021/08/12 06:44:00;;;;;;;5.53;5.03;;;25.80;52.40;;;;;;5087152;28;20494;-80
2021/08/12 06:46:29;;;;;;;5.50;5.03;;;25.90;52.60;;;;;;5087069;28;20415;-80
2021/08/12 06:48:57;;;;;;;5.97;5.57;;;26.00;52.00;;;;;;5087355;28;20538;-80
2021/08/12 06:51:30;;;;;;;5.50;5.10;;;26.00;52.20;;;;;;5087413;28;20435;-80
2021/08/12 06:53:57;;;;;;;5.97;5.57;;;26.00;52.10;;;;;;5087026;28;20403;-80
2021/08/12 06:56:25;;;;;;;5.40;5.00;;;26.10;51.90;;;;;;5088495;28;20443;-83
2021/08/12 06:58:53;;;;;;;5.70;5.30;;;26.10;52.00;;;;;;5086655;28;20468;-84
2021/08/12 07:01:21;;;;;;;5.63;5.23;;;26.20;51.60;;;;;;5087936;28;20457;-81
2021/08/12 07:03:51;;;;;;;5.20;4.80;;;26.20;51.80;;;;;;5085333;28;20472;-83
2021/08/12 07:06:18;;;;;;;5.33;4.90;;;26.30;51.90;;;;;;5085949;28;20888;-83
2021/08/12 07:08:46;;;;;;;6.43;5.90;;;26.40;51.70;;;;;;5084454;28;20679;-82
2021/08/12 07:11:14;;;;;;;6.20;5.63;;;26.50;51.90;;;;;;5085449;28;20576;-81
2021/08/12 07:13:43;;;;;;;5.33;4.97;;;26.60;51.70;;;;;;5086045;28;20510;-81
2021/08/12 07:16:14;;;;;;;5.97;5.53;;;26.70;51.50;;;;;;5085168;28;20471;-81
2021/08/12 07:18:42;;;;;;;6.33;5.83;;;26.90;51.40;;;;;;5084923;28;20599;-81
2021/08/12 07:21:15;;;;;;;5.70;5.20;;;27.00;50.80;;;;;;5084326;28;20427;-81
2021/08/12 07:23:43;;;;;;;5.80;5.27;;;27.00;50.70;;;;;;5078188;28;20520;-81
2021/08/12 07:26:12;;;;;;;5.70;5.20;;;27.10;50.90;;;;;;5078800;28;20448;-81
2021/08/12 07:28:40;;;;;;;5.80;5.40;;;27.20;51.00;;;;;;5081577;28;20484;-80
2021/08/12 07:31:08;;;;;;;5.80;5.40;;;27.20;50.80;;;;;;5084193;28;20496;-81
2021/08/12 07:33:36;;;;;;;6.00;5.50;;;27.30;50.90;;;;;;5083935;28;20510;-81
2021/08/12 07:36:05;;;;;;;5.53;5.13;;;27.40;51.10;;;;;;5080189;28;20528;-80
2021/08/12 07:38:35;;;;;;;6.00;5.43;;;27.50;51.50;;;;;;5083221;28;20526;-81
2021/08/12 07:41:03;;;;;;;5.77;5.30;;;27.60;50.90;;;;;;5089760;28;20499;-81
2021/08/12 07:43:30;;;;;;;6.33;5.93;;;27.70;50.80;;;;;;5089583;28;20436;-81
2021/08/12 07:45:58;;;;;;;5.23;4.73;;;27.80;50.60;;;;;;5077001;28;20503;-80
2021/08/12 07:48:26;;;;;;;5.77;5.37;;;28.00;50.40;;;;;;5083849;28;20461;-80
2021/08/12 07:50:54;;;;;;;6.17;5.60;;;28.10;50.40;;;;;;5084501;28;20559;-81
2021/08/12 07:53:22;;;;;;;6.07;5.57;;;28.20;50.10;;;;;;5084251;28;20481;-81
2021/08/12 07:55:51;;;;;;;6.37;5.87;;;28.30;50.10;;;;;;5078719;28;20478;-81
2021/08/12 07:58:19;;;;;;;5.57;5.07;;;28.50;50.10;;;;;;5088044;28;20449;-80
2021/08/12 08:00:47;;;;;;;5.90;5.40;;;28.60;49.90;;;;;;5082010;28;20505;-82
2021/08/12 08:03:15;;;;;;;5.27;4.90;;;28.80;49.80;;;;;;5082183;28;20959;-80
2021/08/12 08:05:43;;;;;;;5.87;5.47;;;28.90;49.80;;;;;;5083519;28;20429;-81
2021/08/12 08:08:11;;;;;;;5.63;5.30;;;29.10;49.60;;;;;;5084206;28;20457;-81
2021/08/12 08:10:39;;;;;;;4.80;4.40;;;29.30;49.50;;;;;;5086135;28;20579;-79
2021/08/12 08:13:08;;;;;;;6.00;5.50;;;29.40;49.30;;;;;;5081008;28;20473;-80
2021/08/12 08:15:36;;;;;;;5.00;4.70;;;29.50;49.20;;;;;;5076706;28;20713;-80
2021/08/12 08:18:04;;;;;;;5.90;5.40;;;29.40;49.10;;;;;;5081476;28;20429;-80
2021/08/12 08:20:32;;;;;;;5.60;5.30;;;29.40;49.10;;;;;;5081446;28;20425;-80
2021/08/12 08:23:04;;;;;;;5.60;5.20;;;29.40;49.10;;;;;;5078962;28;20524;-79
2021/08/12 08:25:32;;;;;;;5.60;5.10;;;29.40;49.30;;;;;;5080216;28;20543;-81
2021/08/12 08:28:00;;;;;;;5.47;5.07;;;29.50;49.40;;;;;;5082203;28;20425;-80
2021/08/12 08:30:30;;;;;;;6.93;4.80;;;29.60;49.60;;;;;;5083324;28;20463;-82
2021/08/12 08:32:58;;;;;;;5.20;4.90;;;29.70;49.10;;;;;;5084597;28;20526;-80
2021/08/12 08:35:26;;;;;;;5.50;5.00;;;29.90;49.20;;;;;;5084808;28;20456;-81
2021/08/12 08:37:54;;;;;;;5.07;4.80;;;30.00;49.10;;;;;;5087356;28;20424;-81
2021/08/12 08:40:22;;;;;;;5.27;4.97;;;30.20;49.10;;;;;;5085026;28;20441;-81
2021/08/12 08:42:50;;;;;;;5.30;5.00;;;30.30;49.10;;;;;;5084844;28;20457;-81
2021/08/12 08:45:21;;;;;;;5.87;5.47;;;30.40;49.10;;;;;;5077686;28;20530;-78
2021/08/12 08:47:50;;;;;;;6.50;5.90;;;30.40;49.70;;;;;;5082863;28;20472;-78
2021/08/12 08:50:20;;;;;;;6.47;5.80;;;30.40;49.50;;;;;;5083833;28;20425;-78
2021/08/12 08:52:48;;;;;;;13.10;5.60;;;30.30;50.10;;;;;;5083569;28;20468;-79
2021/08/12 08:55:20;;;;;;;8.50;6.20;;;30.50;50.20;;;;;;5082234;28;20928;-79
2021/08/12 08:57:48;;;;;;;12.20;6.67;;;30.40;50.10;;;;;;5080909;28;20429;-81
2021/08/12 09:00:17;;;;;;;7.37;6.67;;;30.20;49.90;;;;;;5081906;28;20448;-82
2021/08/12 09:02:45;;;;;;;7.17;6.57;;;30.20;50.00;;;;;;5085016;28;20433;-80
2021/08/12 09:05:15;;;;;;;9.83;6.63;;;30.20;50.20;;;;;;5082691;28;20415;-83
2021/08/12 09:07:43;;;;;;;6.87;6.27;;;30.20;50.20;;;;;;5082957;28;20468;-83
2021/08/12 09:10:11;;;;;;;8.93;6.60;;;30.20;50.10;;;;;;5083145;28;20448;-80
2021/08/12 09:12:41;;;;;;;6.70;6.00;;;30.20;49.80;;;;;;5085542;28;20526;-83
2021/08/12 09:15:09;;;;;;;7.10;6.40;;;30.30;49.80;;;;;;5085838;28;20523;-81
2021/08/12 09:17:37;;;;;;;6.73;6.10;;;30.30;49.60;;;;;;5083679;28;20918;-81
2021/08/12 09:20:08;;;;;;;6.47;5.97;;;30.30;49.60;;;;;;5083202;28;20783;-82
2021/08/12 09:22:49;;;;;;;7.07;6.37;;;30.40;49.50;;;;;;5088815;28;20444;-78
2021/08/12 09:25:17;;;;;;;6.53;5.80;;;30.50;49.40;;;;;;5084743;28;20447;-81
2021/08/12 09:27:45;;;;;;;7.10;5.70;;;30.50;49.20;;;;;;5094551;28;20456;-82
2021/08/12 09:30:14;;;;;;;6.90;5.83;;;30.50;49.00;;;;;;5093610;28;20456;-79
2021/08/12 09:32:46;;;;;;;8.80;5.77;;;30.50;48.80;;;;;;5088938;28;20563;-81
2021/08/12 09:35:21;;;;;;;9.67;5.33;;;30.60;48.70;;;;;;5091695;28;20528;-84
2021/08/12 09:37:51;;;;;;;6.07;5.47;;;30.60;48.70;;;;;;5088976;28;20467;-84
2021/08/12 09:40:26;;;;;;;9.13;6.10;;;30.70;48.60;;;;;;5085166;28;20452;-83
2021/08/12 09:42:58;;;;;;;8.03;5.97;;;30.70;48.40;;;;;;5087037;28;20455;-81
2021/08/12 09:45:26;;;;;;;6.10;5.50;;;30.70;48.30;;;;;;5088543;28;20441;-81
2021/08/12 09:47:57;;;;;;;7.23;6.17;;;30.70;48.00;;;;;;5067243;28;20544;-79
2021/08/12 09:50:31;;;;;;;6.93;6.13;;;30.80;47.80;;;;;;5078599;28;20521;-77
2021/08/12 09:53:26;;;;;;;5.53;5.13;;;30.80;47.60;;;;;;5085683;28;20468;-80
2021/08/12 09:56:12;;;;;;;6.13;5.47;;;30.90;47.70;;;;;;5044548;28;20437;-80
2021/08/12 09:58:41;;;;;;;7.13;5.70;;;30.90;47.60;;;;;;5083260;28;20452;-79
2021/08/12 10:01:19;;;;;;;7.87;5.70;;;31.00;47.40;;;;;;5084311;28;20535;-78
2021/08/12 10:03:49;;;;;;;9.30;8.40;;;31.20;46.70;;;;;;5081815;28;20425;-79
2021/08/12 10:06:21;;;;;;;10.13;8.47;;;30.50;44.40;;;;;;5084793;28;20432;-83
2021/08/12 10:08:50;;;;;;;11.30;8.90;;;29.50;46.30;;;;;;5086757;28;20520;-83
2021/08/12 10:11:20;;;;;;;11.40;8.30;;;28.50;49.00;;;;;;5082676;28;20471;-78
2021/08/12 10:13:48;;;;;;;9.70;8.00;;;28.50;50.60;;;;;;5086809;28;21077;-79
2021/08/12 10:16:19;;;;;;;10.13;7.83;;;28.80;49.20;;;;;;5095467;28;20468;-80
2021/08/12 10:18:48;;;;;;;8.97;7.07;;;28.80;49.10;;;;;;5092953;28;20465;-80
2021/08/12 10:21:17;;;;;;;8.37;7.50;;;28.90;48.50;;;;;;5091286;28;20445;-80
2021/08/12 10:23:50;;;;;;;10.57;7.60;;;28.20;49.10;;;;;;5088931;28;20456;-81
2021/08/12 10:26:18;;;;;;;7.30;6.60;;;28.70;49.10;;;;;;5081110;28;20421;-79
2021/08/12 10:28:47;;;;;;;8.97;7.43;;;28.80;49.80;;;;;;5077797;28;20521;-80
2021/08/12 10:31:17;;;;;;;10.50;7.40;;;28.90;49.90;;;;;;5079166;28;20525;-78
2021/08/12 10:33:45;;;;;;;12.80;7.30;;;29.20;50.30;;;;;;5080143;28;20562;-80
2021/08/12 10:36:13;;;;;;;10.50;7.77;;;29.30;48.80;;;;;;5080235;28;20406;-80
2021/08/12 10:38:41;;;;;;;7.20;6.50;;;29.30;48.40;;;;;;5078441;28;20488;-78
2021/08/12 10:41:11;;;;;;;6.70;5.73;;;29.50;48.80;;;;;;5080948;28;20763;-80
2021/08/12 10:43:39;;;;;;;7.40;6.70;;;29.00;48.80;;;;;;5081302;28;20448;-79
2021/08/12 10:46:09;;;;;;;6.90;5.83;;;28.90;48.60;;;;;;5083689;28;20927;-82
2021/08/12 10:48:37;;;;;;;7.90;6.30;;;29.20;48.00;;;;;;5082969;28;20742;-81
2021/08/12 10:51:10;;;;;;;7.50;6.27;;;29.30;47.60;;;;;;5075408;28;20545;-79
2021/08/12 10:53:38;;;;;;;8.60;6.03;;;29.50;48.60;;;;;;5078678;28;20551;-79
2021/08/12 10:56:15;;;;;;;7.77;6.70;;;30.20;47.20;;;;;;5081689;28;20736;-78
2021/08/12 10:58:48;;;;;;;7.37;6.23;;;29.60;46.10;;;;;;5082201;28;20488;-79
2021/08/12 11:01:31;;;;;;;8.07;6.47;;;29.90;45.60;;;;;;5081533;28;20441;-80
2021/08/12 11:04:04;;;;;;;9.50;5.83;;;29.50;46.90;;;;;;5086857;28;20425;-78
2021/08/12 11:06:53;;;;;;;10.17;6.70;;;29.50;46.80;;;;;;5082813;28;20504;-78
2021/08/12 11:09:20;;;;;;;8.57;5.47;;;29.30;47.80;;;;;;5065154;28;20540;-78
2021/08/12 11:11:57;;;;;;;6.67;5.20;;;29.50;47.20;;;;;;5069828;28;20537;-78
2021/08/12 11:14:53;;;;;;;6.97;6.10;;;29.80;47.00;;;;;;5072142;28;20515;-78
2021/08/12 11:17:21;;;;;;;8.23;5.90;;;29.80;45.60;;;;;;5087190;28;20449;-77
2021/08/12 11:19:49;;;;;;;6.37;5.77;;;29.70;46.70;;;;;;5081085;28;20527;-79
2021/08/12 11:22:29;;;;;;;8.50;5.53;;;30.00;46.20;;;;;;5070975;28;20507;-79
2021/08/12 11:24:57;;;;;;;6.17;5.20;;;30.10;45.90;;;;;;5070625;28;20460;-78
2021/08/12 11:27:36;;;;;;;6.10;5.10;;;30.90;46.40;;;;;;5070036;28;20450;-79
2021/08/12 11:30:50;;;;;;;9.63;5.93;;;31.00;45.30;;;;;;5070433;28;20505;-77
2021/08/12 11:33:46;;;;;;;6.53;5.93;;;30.30;45.50;;;;;;5077816;28;20468;-79
2021/08/12 11:36:34;;;;;;;5.30;4.90;;;30.20;45.70;;;;;;5063155;28;20461;-80
2021/08/12 11:39:04;;;;;;;5.57;5.07;;;30.80;45.90;;;;;;5070846;28;20512;-80
2021/08/12 11:41:37;;;;;;;5.33;4.80;;;31.60;45.40;;;;;;5092492;28;20523;-79
2021/08/12 11:44:10;;;;;;;5.10;4.63;;;32.80;42.40;;;;;;5083075;28;20425;-80
2021/08/12 11:46:38;;;;;;;5.07;4.77;;;33.10;41.20;;;;;;5079266;28;20456;-81
2021/08/12 11:49:06;;;;;;;5.50;5.10;;;33.60;40.40;;;;;;5083070;28;20493;-81
2021/08/12 11:51:34;;;;;;;7.17;4.77;;;33.80;39.00;;;;;;5073947;28;20516;-81
2021/08/12 11:54:02;;;;;;;6.73;4.87;;;35.70;38.50;;;;;;5071665;28;20466;-82
2021/08/12 11:56:32;;;;;;;4.77;4.43;;;37.00;36.70;;;;;;5072566;28;20457;-80
2021/08/12 11:59:01;;;;;;;6.17;5.40;;;37.90;35.30;;;;;;5072125;28;20623;-81
2021/08/12 12:01:31;;;;;;;5.40;4.90;;;36.90;33.10;;;;;;5079830;28;20476;-82
2021/08/12 12:04:01;;;;;;;5.90;5.40;;;37.30;33.80;;;;;;5081524;28;20932;-81
2021/08/12 12:06:38;;;;;;;5.00;4.60;;;37.50;34.70;;;;;;5076555;28;20512;-83
2021/08/12 12:09:24;;;;;;;5.07;4.67;;;37.70;35.00;;;;;;5075683;28;20970;-80
2021/08/12 12:14:43;;;;;;;5.37;4.40;;;36.40;34.80;;;;;;5073729;28;20468;-81
2021/08/12 12:17:15;;;;;;;4.80;4.40;;;37.60;35.00;;;;;;5078305;28;20452;-82
2021/08/12 12:20:04;;;;;;;5.07;4.00;;;38.20;34.30;;;;;;5071215;28;20465;-82
2021/08/12 12:22:32;;;;;;;5.40;3.67;;;38.80;31.70;;;;;;5071656;28;20524;-81
2021/08/12 12:25:00;;;;;;;4.80;4.07;;;38.90;32.00;;;;;;5080415;28;20457;-80
2021/08/12 12:27:28;;;;;;;5.83;4.10;;;39.00;30.10;;;;;;5090051;28;20483;-83
2021/08/12 12:30:04;;;;;;;7.87;4.30;;;37.70;33.10;;;;;;5088066;28;20477;-81
2021/08/12 12:32:33;;;;;;;4.50;4.17;;;37.60;31.50;;;;;;5089020;28;20421;-83
2021/08/12 12:35:05;;;;;;;4.33;3.83;;;36.90;32.60;;;;;;5089717;28;20464;-82
2021/08/12 12:37:40;;;;;;;3.80;3.60;;;36.30;34.20;;;;;;5103509;28;20432;-81
2021/08/12 12:40:09;;;;;;;13.23;7.00;;;35.80;34.20;;;;;;5096263;28;20456;-84
2021/08/12 12:42:38;;;;;;;5.10;4.70;;;35.40;35.00;;;;;;5092572;28;20955;-83
2021/08/12 12:45:07;;;;;;;5.40;4.47;;;34.90;36.20;;;;;;5090043;28;20468;-81
2021/08/12 12:47:37;;;;;;;6.60;4.30;;;34.60;36.10;;;;;;5092636;28;20504;-80
2021/08/12 12:50:10;;;;;;;4.40;4.10;;;34.40;37.00;;;;;;5082865;28;20445;-81
2021/08/12 12:52:58;;;;;;;4.27;3.97;;;34.20;37.20;;;;;;5091838;28;20462;-83
2021/08/12 12:55:28;;;;;;;4.10;3.90;;;34.00;37.90;;;;;;5088093;28;20500;-81
2021/08/12 12:58:01;;;;;;;4.23;3.93;;;33.90;36.60;;;;;;5094074;28;20863;-82
2021/08/12 13:00:30;;;;;;;5.40;3.67;;;33.90;37.30;;;;;;5094480;28;20512;-80